Time;durP1;ratioP1;P1;durP2;ratioP2;P2;SDS_P1;SDS_P2;PMS_P1;PMS_P2;Temp;Humidity;BMP_temperature;BMP_pressure;BME280_temperature;BME280_humidity;BME280_pressure;Samples;Min_cycle;Max_cycle;Signal;HPM_P1;HPM_P2
2023/07/18 00:01:59;;;;;;;5.30;2.40;;;14.50;99.90;;;;;;5036656;28;20056;-63
2023/07/18 00:04:27;;;;;;;4.10;1.92;;;14.40;99.90;;;;;;5036426;28;20482;-63
2023/07/18 00:06:54;;;;;;;7.10;2.33;;;14.40;99.90;;;;;;5036224;28;20041;-63
2023/07/18 00:09:20;;;;;;;5.80;2.40;;;14.40;99.90;;;;;;5036538;28;20041;-63
2023/07/18 00:11:46;;;;;;;5.47;2.80;;;14.40;99.90;;;;;;5036526;28;20042;-63
2023/07/18 00:14:12;;;;;;;7.45;2.72;;;14.40;99.90;;;;;;5036515;28;20366;-63
2023/07/18 00:16:38;;;;;;;6.45;2.20;;;14.40;99.90;;;;;;5035171;28;20037;-63
2023/07/18 00:19:03;;;;;;;4.32;2.30;;;14.40;99.90;;;;;;5036094;28;20053;-63
2023/07/18 00:21:29;;;;;;;7.18;2.78;;;14.40;99.90;;;;;;5036325;28;20037;-63
2023/07/18 00:23:55;;;;;;;4.95;2.17;;;14.40;99.90;;;;;;5036260;28;20034;-63
2023/07/18 00:26:24;;;;;;;5.28;2.22;;;14.40;99.90;;;;;;5036220;28;20038;-65
2023/07/18 00:28:53;;;;;;;8.13;2.75;;;14.30;99.90;;;;;;5036181;28;20179;-63
2023/07/18 00:31:19;;;;;;;6.18;2.50;;;15.00;99.90;;;;;;5035855;28;20103;-63
2023/07/18 00:33:44;;;;;;;6.97;2.70;;;14.30;99.90;;;;;;5034872;28;20041;-63
2023/07/18 00:36:10;;;;;;;4.78;2.13;;;14.90;1.00;;;;;;5036077;28;20041;-63
2023/07/18 00:38:36;;;;;;;6.50;2.65;;;14.30;99.90;;;;;;5036040;28;20123;-63
2023/07/18 00:41:04;;;;;;;5.78;2.42;;;14.40;99.90;;;;;;5035992;28;20112;-63
2023/07/18 00:43:33;;;;;;;7.30;2.97;;;14.20;1.00;;;;;;5036010;28;20362;-63
2023/07/18 00:46:00;;;;;;;5.07;2.25;;;14.10;1.00;;;;;;5035784;28;20048;-63
2023/07/18 00:48:32;;;;;;;8.85;2.42;;;14.20;1.00;;;;;;5035470;28;20037;-63
2023/07/18 00:50:58;;;;;;;8.52;2.40;;;14.50;1.00;;;;;;5035744;28;20040;-63
2023/07/18 00:53:24;;;;;;;4.93;2.20;;;14.50;1.00;;;;;;5035710;28;20037;-63
2023/07/18 00:55:50;;;;;;;7.45;2.50;;;14.70;1.00;;;;;;5035707;28;20041;-63
2023/07/18 00:58:17;;;;;;;4.78;2.25;;;14.70;1.00;;;;;;5035318;28;20072;-63
2023/07/18 01:00:42;;;;;;;4.03;2.17;;;14.30;1.00;;;;;;5034404;28;20042;-63
2023/07/18 01:03:08;;;;;;;5.72;2.35;;;14.40;1.00;;;;;;5035531;28;20508;-63
2023/07/18 01:05:34;;;;;;;4.70;2.30;;;14.40;1.00;;;;;;5033858;28;20158;-64
2023/07/18 01:08:03;;;;;;;4.95;2.20;;;14.40;1.00;;;;;;5034320;28;20049;-63
2023/07/18 01:10:28;;;;;;;6.03;2.67;;;14.40;1.00;;;;;;5035381;28;20033;-63
2023/07/18 01:12:59;;;;;;;6.40;2.63;;;14.20;1.00;;;;;;5034069;28;20041;-64
2023/07/18 01:15:28;;;;;;;5.25;2.53;;;14.00;1.00;;;;;;5035301;28;20042;-63
2023/07/18 01:17:54;;;;;;;7.85;2.30;;;14.50;1.00;;;;;;5035221;28;20354;-63
2023/07/18 01:20:22;;;;;;;6.13;2.67;;;15.00;1.00;;;;;;5035198;28;20041;-63
2023/07/18 01:22:53;;;;;;;5.95;2.25;;;14.10;1.00;;;;;;5034956;28;20088;-63
2023/07/18 01:25:19;;;;;;;6.75;2.75;;;14.10;1.00;;;;;;5035139;28;20037;-63
2023/07/18 01:27:46;;;;;;;3.70;2.10;;;14.00;1.00;;;;;;5035017;28;20088;-63
2023/07/18 01:30:13;;;;;;;5.18;2.15;;;14.20;1.00;;;;;;5035046;28;20039;-63
2023/07/18 01:32:39;;;;;;;10.43;2.53;;;14.20;1.00;;;;;;5034954;28;20046;-63
2023/07/18 01:35:08;;;;;;;6.57;2.45;;;14.50;1.00;;;;;;5034887;28;20477;-63
2023/07/18 01:37:35;;;;;;;7.55;2.40;;;14.00;1.00;;;;;;5034936;28;20049;-63
2023/07/18 01:40:01;;;;;;;6.60;2.28;;;14.20;1.00;;;;;;5034607;28;20041;-63
2023/07/18 01:42:26;;;;;;;7.43;2.55;;;14.10;1.00;;;;;;5033568;28;20042;-63
2023/07/18 01:44:52;;;;;;;9.18;2.60;;;14.10;1.00;;;;;;5034721;28;20416;-63
2023/07/18 01:47:18;;;;;;;6.30;2.53;;;14.20;1.00;;;;;;5034705;28;20098;-63
2023/07/18 01:49:43;;;;;;;7.20;2.65;;;15.00;1.00;;;;;;5034429;28;20041;-63
2023/07/18 01:52:10;;;;;;;5.35;2.47;;;14.10;1.00;;;;;;5034662;28;20079;-63
2023/07/18 01:54:36;;;;;;;5.78;2.30;;;14.10;1.00;;;;;;5034600;28;20038;-63
2023/07/18 01:57:03;;;;;;;5.88;2.60;;;14.10;1.00;;;;;;5034526;28;20041;-63
2023/07/18 01:59:28;;;;;;;8.30;2.28;;;14.00;1.00;;;;;;5033302;28;20037;-63
2023/07/18 02:01:54;;;;;;;6.05;2.20;;;14.30;1.00;;;;;;5034428;28;20507;-63
2023/07/18 02:04:20;;;;;;;5.97;2.72;;;14.70;1.60;;;;;;5034216;28;20060;-63
2023/07/18 02:06:45;;;;;;;8.23;2.47;;;14.00;11.20;;;;;;5034296;28;20536;-63
2023/07/18 02:09:11;;;;;;;5.43;2.58;;;14.10;5.70;;;;;;5033889;28;20048;-63
2023/07/18 02:11:37;;;;;;;6.72;2.78;;;14.00;18.60;;;;;;5033119;28;20041;-63
2023/07/18 02:14:03;;;;;;;8.75;2.65;;;13.90;16.40;;;;;;5034277;28;20065;-63
2023/07/18 02:16:29;;;;;;;5.05;2.30;;;14.20;22.70;;;;;;5033947;28;20045;-63
2023/07/18 02:18:59;;;;;;;7.53;2.50;;;14.20;22.80;;;;;;5034129;28;20030;-63
2023/07/18 02:21:25;;;;;;;7.88;2.47;;;13.90;19.10;;;;;;5034150;28;20078;-63
2023/07/18 02:23:50;;;;;;;6.25;2.78;;;13.90;21.20;;;;;;5034133;28;20477;-63
2023/07/18 02:26:16;;;;;;;10.65;3.13;;;15.10;24.80;;;;;;5033580;28;20049;-63
2023/07/18 02:28:42;;;;;;;5.53;2.50;;;14.00;30.20;;;;;;5033916;28;20037;-63
2023/07/18 02:31:07;;;;;;;6.20;2.45;;;13.70;22.90;;;;;;5033857;28;20033;-63
2023/07/18 02:33:33;;;;;;;4.28;2.10;;;13.90;25.80;;;;;;5032661;28;20080;-63
2023/07/18 02:35:59;;;;;;;7.07;3.00;;;13.90;29.20;;;;;;5033855;28;20049;-64
2023/07/18 02:38:25;;;;;;;8.75;2.67;;;14.50;27.70;;;;;;5032253;28;20456;-63
2023/07/18 02:40:51;;;;;;;6.80;2.90;;;14.30;43.70;;;;;;5033787;28;20124;-63
2023/07/18 02:43:17;;;;;;;4.50;2.50;;;14.10;50.60;;;;;;5033786;28;20049;-63
2023/07/18 02:45:43;;;;;;;6.07;2.17;;;14.00;51.90;;;;;;5033511;28;20049;-63
2023/07/18 02:48:08;;;;;;;6.50;2.65;;;13.80;51.30;;;;;;5033554;28;20116;-66
2023/07/18 02:50:35;;;;;;;7.93;2.80;;;13.70;52.30;;;;;;5033551;28;20044;-63
2023/07/18 02:53:00;;;;;;;9.07;2.55;;;13.90;53.70;;;;;;5033565;28;20040;-63
2023/07/18 02:55:27;;;;;;;6.43;2.50;;;14.40;57.60;;;;;;5033188;28;20124;-63
2023/07/18 02:57:53;;;;;;;5.18;2.90;;;14.00;58.80;;;;;;5033451;28;20037;-63
2023/07/18 03:00:25;;;;;;;5.25;2.55;;;13.80;61.40;;;;;;5033391;28;20055;-63
2023/07/18 03:02:52;;;;;;;5.43;2.40;;;13.80;64.10;;;;;;5031900;28;20095;-64
2023/07/18 03:05:19;;;;;;;4.57;2.55;;;14.50;71.70;;;;;;5032920;28;20060;-63
2023/07/18 03:07:49;;;;;;;8.85;2.50;;;;;;;;;;5032935;28;20052;-63
2023/07/18 03:10:15;;;;;;;4.13;2.80;;;;;;;;;;5032045;28;20037;-63
2023/07/18 03:12:41;;;;;;;7.63;2.58;;;;;;;;;;5033261;28;20172;-63
2023/07/18 03:15:10;;;;;;;5.75;3.05;;;13.60;49.20;;;;;;5031831;28;20054;-63
2023/07/18 03:17:36;;;;;;;6.25;2.95;;;13.80;50.10;;;;;;5033165;28;20091;-63
2023/07/18 03:20:19;;;;;;;7.78;2.85;;;14.60;55.70;;;;;;5033106;28;20120;-63
2023/07/18 03:22:49;;;;;;;5.13;2.20;;;13.70;58.50;;;;;;5031594;28;20071;-63
2023/07/18 03:25:16;;;;;;;7.40;3.20;;;13.70;59.80;;;;;;5033059;28;20072;-63
2023/07/18 03:27:42;;;;;;;5.15;2.85;;;13.70;65.10;;;;;;5031897;28;20379;-63
2023/07/18 03:30:10;;;;;;;5.15;2.90;;;13.60;65.80;;;;;;5032747;28;20431;-63
2023/07/18 03:32:37;;;;;;;6.60;3.17;;;13.60;68.30;;;;;;5032980;28;20042;-63
2023/07/18 03:35:03;;;;;;;5.45;3.10;;;13.60;75.50;;;;;;5032769;28;20113;-63
2023/07/18 03:37:29;;;;;;;8.70;3.08;;;13.50;79.60;;;;;;5031583;28;20081;-63
2023/07/18 03:39:54;;;;;;;8.10;3.15;;;13.50;79.60;;;;;;5031686;28;20037;-63
2023/07/18 03:42:21;;;;;;;9.75;3.28;;;14.20;77.50;;;;;;5032929;28;20045;-64
2023/07/18 03:44:47;;;;;;;9.38;3.05;;;13.50;79.10;;;;;;5032911;28;20048;-65
2023/07/18 03:47:12;;;;;;;5.35;2.75;;;13.40;80.90;;;;;;5032753;28;20042;-63
2023/07/18 03:49:38;;;;;;;10.38;3.13;;;13.50;82.30;;;;;;5031599;28;20087;-63
2023/07/18 03:52:04;;;;;;;5.47;2.53;;;13.40;82.20;;;;;;5032848;28;20501;-63
2023/07/18 03:54:33;;;;;;;10.25;3.63;;;13.50;84.40;;;;;;5032434;28;20033;-63
2023/07/18 03:56:58;;;;;;;5.82;2.90;;;13.50;83.90;;;;;;5032788;28;20064;-63
2023/07/18 03:59:24;;;;;;;7.63;2.65;;;13.50;85.00;;;;;;5032702;28;20045;-63
2023/07/18 04:01:49;;;;;;;7.68;2.70;;;13.60;85.30;;;;;;5032665;28;20396;-63
2023/07/18 04:04:15;;;;;;;5.70;2.70;;;13.40;84.90;;;;;;5030982;28;20057;-63
2023/07/18 04:06:43;;;;;;;8.10;2.83;;;13.50;85.30;;;;;;5032697;28;20092;-63
2023/07/18 04:09:09;;;;;;;9.00;3.22;;;13.50;85.90;;;;;;5031154;28;20041;-63
2023/07/18 04:11:35;;;;;;;8.25;3.10;;;13.90;87.20;;;;;;5032689;28;20052;-63
2023/07/18 04:14:01;;;;;;;4.40;2.80;;;13.50;88.90;;;;;;5032614;28;20424;-63
2023/07/18 04:16:27;;;;;;;5.60;3.13;;;13.50;90.30;;;;;;5032621;28;20168;-63
2023/07/18 04:18:52;;;;;;;6.28;3.00;;;13.60;90.30;;;;;;5032274;28;20072;-63
2023/07/18 04:21:18;;;;;;;6.10;2.78;;;13.60;90.20;;;;;;5031299;28;20037;-63
2023/07/18 04:23:43;;;;;;;5.15;2.53;;;14.10;90.60;;;;;;5032194;28;20120;-63
2023/07/18 04:26:09;;;;;;;8.10;2.90;;;13.40;90.90;;;;;;5032394;28;20057;-63
2023/07/18 04:28:36;;;;;;;7.07;2.92;;;13.60;90.90;;;;;;5031223;28;20119;-63
2023/07/18 04:31:02;;;;;;;7.25;3.50;;;13.60;91.60;;;;;;5032165;28;20121;-63
2023/07/18 04:33:34;;;;;;;6.63;2.80;;;13.60;91.30;;;;;;5031098;28;20489;-63
2023/07/18 04:36:00;;;;;;;6.03;3.00;;;13.60;90.70;;;;;;5031138;28;20048;-63
2023/07/18 04:38:26;;;;;;;9.23;3.38;;;13.60;91.60;;;;;;5031893;28;20060;-63
2023/07/18 04:40:51;;;;;;;10.27;3.70;;;13.70;91.30;;;;;;5036063;28;20396;-63
2023/07/18 04:43:18;;;;;;;5.75;3.35;;;14.40;91.10;;;;;;5035644;28;20113;-63
2023/07/18 04:45:45;;;;;;;5.60;3.28;;;13.50;90.50;;;;;;5035629;28;20072;-63
2023/07/18 04:48:18;;;;;;;5.55;2.78;;;13.60;90.40;;;;;;5035639;28;20049;-63
2023/07/18 04:51:03;;;;;;;6.45;2.88;;;13.80;90.50;;;;;;5035847;28;20034;-63
2023/07/18 04:53:31;;;;;;;10.40;3.17;;;13.80;91.10;;;;;;5035215;28;20045;-63
2023/07/18 04:55:57;;;;;;;6.18;3.22;;;13.90;90.10;;;;;;5035638;28;20421;-63
2023/07/18 04:58:25;;;;;;;8.55;3.47;;;14.60;90.20;;;;;;5034159;28;20481;-63
2023/07/18 05:00:51;;;;;;;7.55;3.53;;;14.50;89.40;;;;;;5035640;28;20045;-63
2023/07/18 05:03:17;;;;;;;7.22;2.65;;;13.90;89.60;;;;;;5035558;28;20029;-63
2023/07/18 05:05:43;;;;;;;7.90;3.53;;;14.00;89.30;;;;;;5035048;28;20049;-63
2023/07/18 05:08:09;;;;;;;11.18;3.60;;;13.90;88.10;;;;;;5035481;28;20403;-63
2023/07/18 05:10:34;;;;;;;6.93;3.28;;;14.00;87.50;;;;;;5035170;28;20044;-64
2023/07/18 05:13:00;;;;;;;9.40;3.20;;;14.10;87.60;;;;;;5035438;28;20037;-63
2023/07/18 05:15:26;;;;;;;10.93;3.35;;;14.10;88.60;;;;;;5035003;28;20447;-63
2023/07/18 05:17:51;;;;;;;11.85;3.78;;;14.10;88.20;;;;;;5034938;28;20037;-63
2023/07/18 05:20:17;;;;;;;6.63;2.95;;;14.20;90.50;;;;;;5035254;28;20037;-63
2023/07/18 05:22:44;;;;;;;9.02;3.58;;;14.30;90.50;;;;;;5035173;28;20117;-64
2023/07/18 05:25:14;;;;;;;11.80;3.30;;;14.50;90.90;;;;;;5035147;28;20041;-63
2023/07/18 05:27:41;;;;;;;11.50;3.72;;;15.20;91.40;;;;;;5035046;28;20104;-63
2023/07/18 05:30:17;;;;;;;19.70;4.18;;;14.20;90.40;;;;;;5035077;28;20037;-63
2023/07/18 05:32:44;;;;;;;9.93;3.03;;;14.40;91.50;;;;;;5035050;28;20041;-63
2023/07/18 05:35:13;;;;;;;8.05;2.85;;;14.70;92.80;;;;;;5035497;28;20037;-65
2023/07/18 05:37:40;;;;;;;13.05;3.22;;;14.50;93.20;;;;;;5034937;28;20053;-64
2023/07/18 05:40:09;;;;;;;13.15;3.17;;;15.00;92.40;;;;;;5034579;28;20045;-66
2023/07/18 05:42:36;;;;;;;6.40;3.30;;;14.60;89.60;;;;;;5034811;28;20120;-69
2023/07/18 05:45:01;;;;;;;10.27;3.00;;;14.70;87.80;;;;;;5034760;28;20042;-65
2023/07/18 05:47:27;;;;;;;5.65;2.55;;;14.80;87.50;;;;;;5034621;28;20042;-65
2023/07/18 05:49:52;;;;;;;9.82;2.88;;;14.90;85.80;;;;;;5033914;28;20045;-66
2023/07/18 05:52:18;;;;;;;8.10;3.15;;;14.90;85.20;;;;;;5034616;28;20528;-67
2023/07/18 05:54:45;;;;;;;6.10;3.05;;;15.00;84.80;;;;;;5033210;28;20394;-67
2023/07/18 05:57:10;;;;;;;8.02;2.85;;;15.20;84.40;;;;;;5034262;28;20049;-67
2023/07/18 05:59:36;;;;;;;7.13;2.95;;;15.40;82.30;;;;;;5033073;28;20129;-68
2023/07/18 06:02:02;;;;;;;6.15;2.67;;;15.50;74.10;;;;;;5034565;28;20412;-69
2023/07/18 06:04:28;;;;;;;6.10;2.88;;;15.60;69.70;;;;;;5032956;28;20397;-71
2023/07/18 06:06:54;;;;;;;8.73;2.97;;;15.60;60.50;;;;;;5032814;28;20054;-70
2023/07/18 06:09:19;;;;;;;10.10;2.85;;;15.70;56.10;;;;;;5033104;28;20037;-70
2023/07/18 06:11:45;;;;;;;7.53;2.72;;;15.80;52.70;;;;;;5032752;28;20113;-71
2023/07/18 06:14:11;;;;;;;7.13;2.63;;;;;;;;;;5032918;28;20465;-69
2023/07/18 06:16:37;;;;;;;6.28;3.13;;;16.00;41.20;;;;;;5016268;28;20051;-68
2023/07/18 06:19:02;;;;;;;8.20;3.00;;;16.10;32.80;;;;;;5032702;28;20485;-67
2023/07/18 06:21:28;;;;;;;9.93;3.15;;;16.30;28.40;;;;;;5034147;28;20041;-69
2023/07/18 06:23:54;;;;;;;10.35;3.25;;;16.40;16.10;;;;;;5034202;28;20401;-69
2023/07/18 06:26:20;;;;;;;5.90;2.70;;;16.30;10.20;;;;;;5033994;28;20091;-69
2023/07/18 06:28:45;;;;;;;6.38;2.45;;;16.70;8.30;;;;;;5033997;28;20537;-68
2023/07/18 06:31:12;;;;;;;8.35;2.55;;;16.40;4.90;;;;;;5033541;28;20076;-69
2023/07/18 06:33:38;;;;;;;8.38;2.58;;;16.50;1.00;;;;;;5032284;28;20076;-69
2023/07/18 06:36:04;;;;;;;6.65;2.70;;;16.50;1.00;;;;;;5033854;28;20064;-73
2023/07/18 06:38:29;;;;;;;5.63;2.65;;;16.00;1.00;;;;;;5033705;28;20041;-70
2023/07/18 06:40:55;;;;;;;7.78;2.53;;;;;;;;;;5032450;28;20378;-72
2023/07/18 06:43:21;;;;;;;7.93;2.60;;;;;;;;;;5033758;28;20447;-75
2023/07/18 06:45:48;;;;;;;7.90;2.53;;;;;;;;;;5032328;28;20099;-67
2023/07/18 06:48:14;;;;;;;6.35;2.60;;;;;;;;;;5033668;28;20112;-68
2023/07/18 06:50:46;;;;;;;6.00;2.25;;;;;;;;;;5032094;28;20044;-67
2023/07/18 06:53:13;;;;;;;7.28;2.35;;;;;;;;;;5033524;28;20037;-68
2023/07/18 06:55:41;;;;;;;4.45;2.05;;;;;;;;;;5032230;28;20393;-67
2023/07/18 06:58:09;;;;;;;7.03;2.88;;;;;;;;;;5033236;28;20578;-67
2023/07/18 07:00:35;;;;;;;7.28;2.65;;;;;;;;;;5033296;28;20465;-68
2023/07/18 07:03:00;;;;;;;8.32;2.40;;;17.20;99.90;;;;;;5032998;28;20053;-68
2023/07/18 07:05:26;;;;;;;8.65;2.50;;;17.30;99.90;;;;;;5015212;28;20041;-68
2023/07/18 07:07:53;;;;;;;5.88;2.67;;;17.20;99.90;;;;;;5032950;28;20068;-68
2023/07/18 07:10:19;;;;;;;4.88;2.17;;;17.30;99.90;;;;;;5033290;28;20060;-68
2023/07/18 07:12:44;;;;;;;5.55;2.35;;;17.40;99.90;;;;;;5032960;28;20041;-68
2023/07/18 07:15:11;;;;;;;6.30;2.25;;;17.50;99.90;;;;;;5033196;28;20452;-68
2023/07/18 07:17:37;;;;;;;5.93;2.35;;;17.70;99.90;;;;;;5032857;28;20049;-67
2023/07/18 07:20:12;;;;;;;8.43;2.53;;;17.70;99.90;;;;;;5031924;28;20045;-68
2023/07/18 07:22:38;;;;;;;6.50;2.15;;;17.80;99.90;;;;;;5031863;28;20393;-68
2023/07/18 07:25:04;;;;;;;8.77;2.65;;;17.70;52.00;;;;;;5032821;28;20045;-68
2023/07/18 07:27:30;;;;;;;6.35;2.15;;;17.90;26.90;;;;;;5032993;28;20048;-68
2023/07/18 07:29:55;;;;;;;6.40;2.60;;;17.90;1.00;;;;;;5032993;28;20472;-68
2023/07/18 07:32:21;;;;;;;7.53;1.80;;;17.90;1.00;;;;;;5032370;28;20171;-68
2023/07/18 07:34:46;;;;;;;8.88;2.75;;;18.30;1.00;;;;;;5033212;28;20044;-69
2023/07/18 07:37:12;;;;;;;4.53;2.05;;;17.90;1.00;;;;;;5031055;28;20046;-66
2023/07/18 07:39:38;;;;;;;10.15;2.33;;;17.90;1.00;;;;;;5032683;28;20396;-69
2023/07/18 07:42:04;;;;;;;6.88;2.22;;;17.90;1.00;;;;;;5032506;28;20045;-67
2023/07/18 07:44:30;;;;;;;8.73;2.50;;;18.00;1.00;;;;;;5032426;28;20103;-66
2023/07/18 07:46:57;;;;;;;6.32;2.63;;;17.90;1.00;;;;;;5032668;28;20038;-67
2023/07/18 07:49:22;;;;;;;6.53;2.20;;;18.30;99.90;;;;;;5032340;28;20038;-66
2023/07/18 07:51:49;;;;;;;5.07;2.25;;;18.30;85.70;;;;;;5032572;28;20091;-66
2023/07/18 07:54:15;;;;;;;5.25;1.65;;;18.30;99.90;;;;;;5032613;28;20049;-66
2023/07/18 07:56:40;;;;;;;7.93;2.33;;;18.60;99.90;;;;;;5032662;28;20037;-66
2023/07/18 07:59:06;;;;;;;9.25;1.98;;;18.30;1.00;;;;;;5032500;28;20099;-67
2023/07/18 08:01:31;;;;;;;11.50;2.70;;;18.00;99.90;;;;;;5032234;28;20044;-66
2023/07/18 08:03:57;;;;;;;10.25;2.70;;;18.80;99.90;;;;;;5032433;28;20038;-65
2023/07/18 08:06:22;;;;;;;6.25;1.95;;;18.50;13.90;;;;;;5032557;28;20041;-66
2023/07/18 08:08:48;;;;;;;4.65;2.35;;;18.40;99.90;;;;;;5031089;28;20433;-65
2023/07/18 08:11:14;;;;;;;4.15;1.73;;;18.40;16.40;;;;;;5032320;28;20037;-65
2023/07/18 08:13:39;;;;;;;10.27;3.03;;;18.40;99.90;;;;;;5034114;28;20076;-66
2023/07/18 08:16:05;;;;;;;5.80;2.22;;;18.30;75.40;;;;;;5036431;28;20049;-65
2023/07/18 08:18:31;;;;;;;4.40;2.10;;;18.30;22.80;;;;;;5036200;28;20042;-65
2023/07/18 08:20:57;;;;;;;6.05;1.75;;;18.60;43.10;;;;;;5035168;28;20029;-66
2023/07/18 08:23:22;;;;;;;8.02;2.30;;;18.00;99.90;;;;;;5036389;28;20037;-66
2023/07/18 08:25:49;;;;;;;4.78;2.17;;;18.40;88.40;;;;;;5034729;28;20045;-65
2023/07/18 08:28:14;;;;;;;5.88;2.08;;;18.40;99.90;;;;;;5036294;28;20045;-65
2023/07/18 08:30:40;;;;;;;6.53;2.05;;;18.40;1.00;;;;;;5036247;28;20041;-65
2023/07/18 08:33:07;;;;;;;10.57;2.65;;;18.30;99.90;;;;;;5036114;28;20029;-65
2023/07/18 08:35:33;;;;;;;11.48;2.25;;;19.00;99.90;;;;;;5034835;28;20477;-65
2023/07/18 08:37:58;;;;;;;7.53;2.47;;;18.30;1.00;;;;;;5036032;28;20099;-65
2023/07/18 08:40:24;;;;;;;9.10;1.98;;;18.20;99.90;;;;;;5036056;28;20080;-66
2023/07/18 08:42:50;;;;;;;7.40;2.30;;;18.30;99.90;;;;;;5036024;28;20547;-66
2023/07/18 08:45:16;;;;;;;9.20;2.25;;;18.30;56.90;;;;;;5035760;28;20480;-65
2023/07/18 08:47:45;;;;;;;9.23;1.70;;;18.20;99.90;;;;;;5034541;28;20048;-66
2023/07/18 08:50:11;;;;;;;8.07;2.60;;;18.40;99.90;;;;;;5035843;28;20037;-66
2023/07/18 08:52:36;;;;;;;5.60;2.13;;;18.20;99.90;;;;;;5035381;28;20073;-66
2023/07/18 08:55:04;;;;;;;9.77;2.13;;;18.20;30.40;;;;;;5035747;28;20072;-65
2023/07/18 08:57:30;;;;;;;5.10;1.67;;;18.40;99.90;;;;;;5035740;28;20393;-66
2023/07/18 08:59:59;;;;;;;8.25;2.30;;;18.30;1.00;;;;;;5035701;28;20449;-66
2023/07/18 09:02:25;;;;;;;7.40;2.45;;;18.90;99.90;;;;;;5034388;28;20095;-67
2023/07/18 09:04:50;;;;;;;9.57;2.40;;;19.00;99.90;;;;;;5035336;28;20521;-66
2023/07/18 09:07:19;;;;;;;5.90;2.38;;;19.10;1.00;;;;;;5035163;28;20481;-66
2023/07/18 09:09:48;;;;;;;8.57;2.35;;;19.40;99.90;;;;;;5035399;28;20041;-66
2023/07/18 09:12:14;;;;;;;12.30;2.53;;;19.70;99.90;;;;;;5035460;28;20377;-66
2023/07/18 09:14:40;;;;;;;5.50;1.65;;;19.50;99.90;;;;;;5035386;28;20378;-66
2023/07/18 09:17:07;;;;;;;6.32;2.60;;;19.40;99.90;;;;;;5050610;28;20044;-66
2023/07/18 09:19:39;;;;;;;4.00;1.90;;;20.20;99.90;;;;;;5035023;28;20168;-66
2023/07/18 09:22:07;;;;;;;12.57;2.30;;;19.40;93.80;;;;;;5035320;28;20397;-68
2023/07/18 09:24:35;;;;;;;6.63;2.08;;;19.80;99.90;;;;;;5034234;28;20046;-66
2023/07/18 09:27:02;;;;;;;6.80;2.47;;;19.60;99.90;;;;;;5035036;28;20044;-66
2023/07/18 09:29:28;;;;;;;4.65;1.70;;;20.00;99.90;;;;;;5034798;28;20093;-67
2023/07/18 09:31:54;;;;;;;6.65;2.50;;;19.70;99.90;;;;;;5035231;28;20045;-66
2023/07/18 09:34:20;;;;;;;8.93;2.50;;;20.00;6.60;;;;;;5033828;28;20116;-66
2023/07/18 09:36:58;;;;;;;5.45;1.83;;;20.00;1.00;;;;;;5035021;28;20481;-66
2023/07/18 09:39:25;;;;;;;6.50;2.35;;;19.60;99.90;;;;;;5034790;28;20045;-66
2023/07/18 09:41:52;;;;;;;10.38;2.35;;;19.50;1.00;;;;;;5034924;28;20551;-66
2023/07/18 09:44:19;;;;;;;7.28;1.88;;;20.20;1.00;;;;;;5033553;28;20502;-66
2023/07/18 09:46:45;;;;;;;4.60;1.92;;;20.40;1.00;;;;;;5034725;28;20060;-66
2023/07/18 09:49:11;;;;;;;3.85;1.83;;;20.10;1.00;;;;;;5034793;28;20037;-66
2023/07/18 09:51:38;;;;;;;5.22;2.15;;;20.30;1.00;;;;;;5034746;28;20401;-66
2023/07/18 09:54:06;;;;;;;6.93;1.90;;;20.40;99.90;;;;;;5034618;28;20041;-66
2023/07/18 09:56:39;;;;;;;8.55;1.75;;;19.90;99.90;;;;;;5033364;28;20120;-66
2023/07/18 09:59:08;;;;;;;4.65;1.55;;;20.30;99.90;;;;;;5034466;28;20045;-67
2023/07/18 10:01:34;;;;;;;8.15;2.30;;;20.80;99.90;;;;;;5034235;28;20120;-66
2023/07/18 10:04:00;;;;;;;5.05;1.83;;;20.70;99.90;;;;;;5034311;28;20087;-66
2023/07/18 10:06:26;;;;;;;4.82;1.70;;;20.20;99.90;;;;;;5032933;28;20132;-66
2023/07/18 10:08:54;;;;;;;4.25;1.55;;;20.20;1.00;;;;;;5033996;28;20034;-67
2023/07/18 10:11:20;;;;;;;5.93;1.73;;;20.20;99.90;;;;;;5033950;28;20069;-70
2023/07/18 10:13:55;;;;;;;8.88;2.22;;;20.10;99.90;;;;;;5033046;28;20048;-68
2023/07/18 10:16:21;;;;;;;4.10;1.35;;;20.10;99.90;;;;;;5034253;28;20168;-67
2023/07/18 10:18:49;;;;;;;4.53;1.58;;;20.20;99.90;;;;;;5033036;28;20080;-67
2023/07/18 10:21:35;;;;;;;4.97;1.77;;;20.00;99.90;;;;;;5034129;28;20041;-74
2023/07/18 10:24:19;;;;;;;7.97;1.52;;;20.30;99.90;;;;;;5032268;28;20060;-68
2023/07/18 10:26:48;;;;;;;6.30;2.13;;;20.40;99.90;;;;;;5034007;28;20045;-68
2023/07/18 10:29:14;;;;;;;5.00;1.40;;;20.40;99.90;;;;;;5032681;28;20503;-68
2023/07/18 10:31:40;;;;;;;6.35;1.40;;;20.90;99.90;;;;;;5034036;28;20038;-68
2023/07/18 10:34:16;;;;;;;4.55;1.20;;;20.70;99.90;;;;;;5032369;28;20112;-68
2023/07/18 10:36:55;;;;;;;4.93;1.48;;;20.90;99.90;;;;;;5033365;28;20519;-68
2023/07/18 10:39:41;;;;;;;4.22;1.35;;;21.40;99.90;;;;;;5033864;28;20057;-68
2023/07/18 10:42:19;;;;;;;5.05;1.15;;;21.20;99.90;;;;;;5033802;28;20125;-68
2023/07/18 10:44:45;;;;;;;2.90;1.10;;;21.30;99.90;;;;;;5033768;28;20103;-68
2023/07/18 10:47:15;;;;;;;4.97;1.50;;;21.30;99.90;;;;;;5033866;28;20109;-68
2023/07/18 10:49:42;;;;;;;3.22;1.00;;;21.30;99.90;;;;;;5033664;28;20041;-68
2023/07/18 10:52:08;;;;;;;4.97;1.20;;;21.00;99.90;;;;;;5033583;28;20041;-68
2023/07/18 10:54:33;;;;;;;5.80;1.75;;;21.50;97.00;;;;;;5033269;28;20041;-68
2023/07/18 10:56:59;;;;;;;1.38;0.77;;;22.20;93.70;;;;;;5033521;28;20124;-68
2023/07/18 10:59:25;;;;;;;2.70;1.08;;;21.30;93.10;;;;;;5033351;28;20041;-68
2023/07/18 11:01:50;;;;;;;3.95;1.20;;;21.50;90.40;;;;;;5031922;28;20045;-72
2023/07/18 11:04:16;;;;;;;3.13;1.05;;;21.30;77.00;;;;;;5033245;28;20053;-66
2023/07/18 11:06:49;;;;;;;2.28;0.93;;;21.60;60.60;;;;;;5033251;28;20049;-67
2023/07/18 11:09:15;;;;;;;4.63;1.30;;;21.70;44.00;;;;;;5033291;28;20045;-67
2023/07/18 11:11:41;;;;;;;2.38;1.05;;;22.30;50.80;;;;;;5032972;28;20045;-67
2023/07/18 11:14:07;;;;;;;3.00;0.80;;;21.70;43.30;;;;;;5032927;28;20040;-68
2023/07/18 11:16:33;;;;;;;2.17;0.70;;;22.00;45.90;;;;;;5033191;28;20037;-67
2023/07/18 11:18:59;;;;;;;5.25;1.00;;;21.80;47.10;;;;;;5032754;28;20045;-68
2023/07/18 11:21:26;;;;;;;4.20;1.00;;;22.20;50.90;;;;;;5033127;28;20091;-68
2023/07/18 11:23:52;;;;;;;2.38;0.80;;;22.00;99.90;;;;;;5032875;28;20071;-67
2023/07/18 11:26:18;;;;;;;2.42;0.75;;;22.00;37.80;;;;;;5032756;28;20080;-68
2023/07/18 11:28:49;;;;;;;4.50;1.13;;;22.10;19.50;;;;;;5033016;28;20052;-67
2023/07/18 11:31:26;;;;;;;1.38;0.75;;;22.20;14.80;;;;;;5048149;28;20045;-67
2023/07/18 11:33:59;;;;;;;4.18;1.17;;;22.30;17.00;;;;;;5032741;28;20120;-67
2023/07/18 11:36:30;;;;;;;5.60;1.08;;;22.30;13.60;;;;;;5033052;28;20115;-68
2023/07/18 11:38:58;;;;;;;;;;;22.30;9.90;;;;;;5033374;28;20045;-68
2023/07/18 11:41:40;;;;;;;2.60;1.17;;;22.50;5.80;;;;;;5032908;28;19932;-67
2023/07/18 11:44:08;;;;;;;1.63;0.93;;;22.50;9.30;;;;;;5032832;28;20116;-68
2023/07/18 11:46:44;;;;;;;1.98;0.80;;;22.40;6.50;;;;;;5032599;28;20046;-67
2023/07/18 11:49:15;;;;;;;4.80;1.23;;;22.40;3.50;;;;;;5035322;28;20128;-67
2023/07/18 11:51:40;;;;;;;;;;;22.50;5.70;;;;;;5037410;28;20041;-67
2023/07/18 11:54:06;;;;;;;2.70;0.70;;;;;;;;;;5036970;28;20361;-67
2023/07/18 11:56:37;;;;;;;4.38;1.08;;;22.90;1.00;;;;;;5036995;28;20094;-67
2023/07/18 11:59:03;;;;;;;3.30;1.10;;;23.10;4.10;;;;;;5036801;28;20033;-68
2023/07/18 12:01:28;;;;;;;2.92;0.98;;;23.10;1.00;;;;;;5036823;28;20056;-68
2023/07/18 12:03:54;;;;;;;3.80;0.90;;;22.90;1.00;;;;;;5036263;28;20037;-67
2023/07/18 12:06:21;;;;;;;2.95;0.98;;;22.80;1.00;;;;;;5036583;28;20175;-67
2023/07/18 12:08:49;;;;;;;2.75;0.80;;;22.60;1.00;;;;;;5036677;28;20112;-67
2023/07/18 12:11:14;;;;;;;1.88;0.85;;;22.50;1.00;;;;;;5035301;28;20049;-67
2023/07/18 12:13:40;;;;;;;4.07;0.90;;;22.40;1.00;;;;;;5036188;28;20033;-67
2023/07/18 12:16:06;;;;;;;2.00;0.90;;;22.20;1.00;;;;;;5036500;28;20044;-67
2023/07/18 12:18:32;;;;;;;1.30;0.52;;;22.10;1.00;;;;;;5036435;28;20038;-68
2023/07/18 12:20:57;;;;;;;3.75;0.82;;;22.00;1.00;;;;;;5036442;28;20485;-67
2023/07/18 12:23:23;;;;;;;0.82;0.63;;;22.20;1.00;;;;;;5036453;28;20512;-66
2023/07/18 12:25:49;;;;;;;4.07;1.00;;;22.10;1.00;;;;;;5036334;28;20053;-67
2023/07/18 12:28:15;;;;;;;0.40;0.40;;;22.10;1.00;;;;;;5036210;28;20042;-67
2023/07/18 12:30:41;;;;;;;1.52;0.80;;;22.10;1.00;;;;;;5034722;28;20041;-68
2023/07/18 12:33:07;;;;;;;1.40;0.98;;;23.20;1.00;;;;;;5035831;28;20111;-67
2023/07/18 12:35:33;;;;;;;1.48;0.52;;;22.00;1.00;;;;;;5034702;28;20045;-67
2023/07/18 12:37:59;;;;;;;2.20;0.95;;;22.00;1.00;;;;;;5036095;28;20389;-67
2023/07/18 12:40:24;;;;;;;1.40;0.47;;;21.80;1.00;;;;;;5035923;28;20041;-67
2023/07/18 12:42:51;;;;;;;4.18;1.00;;;21.80;1.00;;;;;;5035902;28;20482;-67
2023/07/18 12:45:16;;;;;;;3.33;0.75;;;21.20;1.00;;;;;;5035798;28;20069;-66
2023/07/18 12:47:43;;;;;;;2.08;1.05;;;21.60;1.00;;;;;;5035508;28;20077;-67
2023/07/18 12:50:10;;;;;;;2.83;0.57;;;;;;;;;;5035710;28;20569;-67
2023/07/18 12:52:37;;;;;;;2.97;0.80;;;;;;;;;;5035720;28;20041;-66
2023/07/18 12:55:03;;;;;;;2.05;0.70;;;;;;;;;;5035364;28;20047;-67